Robins AFB, Georgia
Current Conditions -  °F | °C
As of 10:48 PM on Monday 22 Dec 2014 (Local Time) from KWRB Reporting Station
Overcast Overcast  
Wind Chill: 48°   Ceiling: 300
Heat Index: 48°   Visibility: 7mi
Dew Point: 46°   Wind: 3mph
Humidity: 93%   Direction: 90°E
Pressure: 29.94"   Gusts: NA
Location:  32.6187°N, 83.5735°W
Report Text: KWRB 230348Z AUTO 09003KT 7SM R15/5500FT OVC003 09/08 A2994 RMK AO2
Loading
Personal Weather Stations






























Interactive Weather Map New forecast layout! Learn more

10-Day Weather Forecast

Advertisements
Track Severe Weather on mobile